This is the latest recevied weather packets stored in our database for station/object DK6GC-10. If no packets are shown the sender has not sent any weather packets the latest 10 day(s).
| Time | Temp. | Humidity | Pressure | Rain* | Wind** | Luminosity | Snow |
|---|---|---|---|---|---|---|---|
| 1787794217 | 16.67° C | 99% | 1014.2 hPa | - | - | - | - |
| 1787793317 | 16.67° C | 99% | 1014.3 hPa | - | - | - | - |
| 1787792416 | 16.67° C | 98% | 1014.4 hPa | - | - | - | - |
| 1787791516 | 16.67° C | 97% | 1014.4 hPa | - | - | - | - |
| 1787790616 | 16.67° C | 97% | 1014.1 hPa | - | - | - | - |
| 1787789716 | 17.22° C | 95% | 1014 hPa | - | - | - | - |
| 1787788822 | 17.22° C | 94% | 1013.9 hPa | - | - | - | - |
| 1787787922 | 17.78° C | 92% | 1014 hPa | - | - | - | - |
| 1787787022 | 17.22° C | 93% | 1014.6 hPa | - | - | - | - |
| 1787786122 | 17.78° C | 93% | 1014.6 hPa | - | - | - | - |
| 1787785221 | 17.78° C | 92% | 1014.7 hPa | - | - | - | - |
| 1787784321 | 17.78° C | 90% | 1014.6 hPa | - | - | - | - |
| 1787783421 | 18.33° C | 86% | 1014.5 hPa | - | - | - | - |
| 1787782521 | 18.89° C | 86% | 1014.7 hPa | - | - | - | - |
| 1787781620 | 19.44° C | 84% | 1014.7 hPa | - | - | - | - |
| 1787780720 | 20° C | 81% | 1014.7 hPa | - | - | - | - |
| 1787779819 | 21.11° C | 75% | 1014.7 hPa | - | - | - | - |
| 1787778919 | 21.11° C | 75% | 1014.8 hPa | - | - | - | - |
| 1787778019 | 21.11° C | 74% | 1014.9 hPa | - | - | - | - |
| 1787777119 | 20.56° C | 79% | 1014.9 hPa | - | - | - | - |
| 1787776219 | 20.56° C | 78% | 1015 hPa | - | - | - | - |
| 1787775319 | 21.11° C | 78% | 1015.1 hPa | - | - | - | - |
| 1787774418 | 20° C | 83% | 1015.3 hPa | - | - | - | - |
| 1787773517 | 20° C | 83% | 1015.3 hPa | - | - | - | - |
| 1787772617 | 21.11° C | 79% | 1015.3 hPa | - | - | - | - |
* Rain since midnight (hover to see other rain measurements)
** Current wind speed in m/s (hover to see current wind gust speed)